Preview of NWS' New Version of Forecast
This preview is not operational and should not be used for support decisions.

Terminal Aerodrome Forecast (TAF)

Issued by National Weather Service (NWS)

                            
759 
FTUS42 KKEY 201136
TAFEYW
TAF
KEYW 201136Z 2012/2112 11015G25KT P6SM SCT020 BKN050=